createdAt,value
2023-04-05T00:00:44.591Z,2.53
2023-04-05T00:01:50.264Z,3.13
2023-04-05T00:02:53.047Z,2.42
2023-04-05T00:03:57.661Z,2.90
2023-04-05T00:05:00.688Z,2.50
2023-04-05T00:06:05.471Z,2.88
2023-04-05T00:07:08.484Z,2.70
2023-04-05T00:08:13.611Z,2.30
2023-04-05T00:09:16.219Z,2.50
2023-04-05T00:10:18.522Z,2.90
2023-04-05T00:11:21.183Z,2.40
2023-04-05T00:12:23.630Z,2.70
2023-04-05T00:13:26.125Z,2.78
2023-04-05T00:14:28.523Z,3.05
2023-04-05T00:15:33.602Z,2.60
2023-04-05T00:16:36.529Z,2.70
2023-04-05T00:17:39.012Z,3.00
2023-04-05T00:18:49.788Z,2.53
2023-04-05T00:19:57.396Z,2.75
2023-04-05T00:21:00.319Z,2.55
2023-04-05T00:22:03.699Z,2.80
2023-04-05T00:23:06.984Z,2.35
2023-04-05T00:24:15.409Z,2.30
2023-04-05T00:25:18.666Z,2.38
2023-04-05T00:26:21.954Z,2.40
2023-04-05T00:27:28.948Z,2.85
2023-04-05T00:28:31.300Z,2.78
2023-04-05T00:29:34.233Z,2.50
2023-04-05T00:30:38.682Z,2.35
2023-04-05T00:31:41.289Z,2.42
2023-04-05T00:32:43.610Z,2.30
2023-04-05T00:33:46.853Z,2.75
2023-04-05T00:34:50.134Z,2.40
2023-04-05T00:35:52.499Z,2.60
2023-04-05T00:36:54.839Z,3.00
2023-04-05T00:37:57.513Z,2.50
2023-04-05T00:38:59.829Z,2.13
2023-04-05T00:40:02.168Z,3.10
2023-04-05T00:41:04.738Z,2.80
2023-04-05T00:42:07.615Z,3.05
2023-04-05T00:43:09.918Z,2.85
2023-04-05T00:44:12.990Z,3.13
2023-04-05T00:45:15.559Z,2.30
2023-04-05T00:46:18.252Z,2.65
2023-04-05T00:47:20.707Z,3.08
2023-04-05T00:48:24.662Z,2.75
2023-04-05T00:49:27.220Z,2.70
2023-04-05T00:50:32.936Z,3.00
2023-04-05T00:51:36.650Z,3.40
2023-04-05T00:52:40.745Z,3.40
2023-04-05T00:53:44.952Z,3.25
2023-04-05T00:54:47.701Z,2.58
2023-04-05T00:55:51.879Z,2.75
2023-04-05T00:56:56.480Z,2.53
2023-04-05T00:57:59.553Z,2.63
2023-04-05T00:59:02.161Z,2.80
2023-04-05T01:00:09.575Z,2.95
2023-04-05T01:01:20.499Z,2.75
2023-04-05T01:02:34.510Z,2.63
2023-04-05T01:03:38.872Z,2.58
2023-04-05T01:04:50.269Z,3.10
2023-04-05T01:06:06.339Z,2.83
2023-04-05T01:07:26.518Z,2.40
2023-04-05T01:08:40.669Z,2.55
2023-04-05T01:09:52.801Z,2.80
2023-04-05T01:11:00.208Z,2.83
2023-04-05T01:12:09.248Z,2.97
2023-04-05T01:13:11.620Z,2.85
2023-04-05T01:14:14.453Z,2.88
2023-04-05T01:15:18.905Z,2.85
2023-04-05T01:16:21.295Z,2.42
2023-04-05T01:17:28.480Z,2.97
2023-04-05T01:18:31.174Z,3.00
2023-04-05T01:19:35.200Z,2.92
2023-04-05T01:20:46.298Z,2.58
2023-04-05T01:22:22.091Z,2.35
2023-04-05T01:23:45.893Z,3.33
2023-04-05T01:25:22.783Z,3.47
2023-04-05T01:26:41.213Z,2.63
2023-04-05T01:28:27.511Z,3.13
2023-04-05T01:29:51.226Z,2.72
2023-04-05T01:31:41.113Z,3.20
2023-04-05T01:33:22.105Z,3.42
2023-04-05T01:34:53.962Z,2.85
2023-04-05T01:36:02.887Z,2.90
2023-04-05T01:37:12.408Z,3.65
2023-04-05T01:38:22.330Z,3.00
2023-04-05T01:39:26.643Z,3.30
2023-04-05T01:40:31.925Z,3.30
2023-04-05T01:41:34.710Z,2.75
2023-04-05T01:42:37.442Z,3.22
2023-04-05T01:43:39.818Z,3.53
2023-04-05T01:44:42.155Z,3.47
2023-04-05T01:45:45.859Z,3.20
2023-04-05T01:46:48.274Z,3.45
2023-04-05T01:47:50.658Z,3.17
2023-04-05T01:48:54.615Z,3.75
2023-04-05T01:49:56.910Z,3.58
2023-04-05T01:51:01.353Z,3.38
2023-04-05T01:52:03.690Z,4.10
2023-04-05T01:53:07.435Z,4.20
2023-04-05T01:54:10.959Z,4.60
2023-04-05T01:55:13.325Z,4.53
2023-04-05T01:56:15.646Z,3.85
2023-04-05T01:57:17.948Z,4.07
2023-04-05T01:58:21.160Z,4.10
2023-04-05T01:59:23.553Z,3.55
2023-04-05T02:00:26.023Z,3.83
2023-04-05T02:01:28.471Z,3.72
2023-04-05T02:02:32.379Z,4.50
2023-04-05T02:03:34.862Z,4.30
2023-04-05T02:04:37.291Z,3.65
2023-04-05T02:05:39.561Z,3.60
2023-04-05T02:06:42.427Z,3.65
2023-04-05T02:07:44.799Z,3.92
2023-04-05T02:08:47.007Z,3.42
2023-04-05T02:09:49.316Z,3.92
2023-04-05T02:10:53.734Z,3.78
2023-04-05T02:11:56.625Z,3.75
2023-04-05T02:12:58.860Z,3.42
2023-04-05T02:14:01.376Z,3.38
2023-04-05T02:15:05.801Z,3.47
2023-04-05T02:16:09.279Z,3.63
2023-04-05T02:17:12.773Z,3.28
2023-04-05T02:18:16.199Z,3.78
2023-04-05T02:19:23.075Z,3.67
2023-04-05T02:20:26.053Z,3.35
2023-04-05T02:21:28.616Z,3.42
2023-04-05T02:22:31.386Z,3.88
2023-04-05T02:23:34.620Z,3.17
2023-04-05T02:24:37.039Z,3.50
2023-04-05T02:25:40.064Z,3.10
2023-04-05T02:26:42.599Z,3.33
2023-04-05T02:27:45.094Z,3.45
2023-04-05T02:28:47.773Z,3.40
2023-04-05T02:29:50.024Z,4.43
2023-04-05T02:30:52.446Z,4.53
2023-04-05T02:31:55.009Z,3.60
2023-04-05T02:32:57.478Z,4.18
2023-04-05T02:34:01.081Z,4.10
2023-04-05T02:35:04.087Z,3.35
2023-04-05T02:36:09.454Z,3.50
2023-04-05T02:37:11.847Z,3.80
2023-04-05T02:38:15.862Z,4.28
2023-04-05T02:39:18.589Z,3.47
2023-04-05T02:40:21.961Z,3.70
2023-04-05T02:41:25.122Z,3.45
2023-04-05T02:42:27.470Z,3.60
2023-04-05T02:43:29.821Z,3.85
2023-04-05T02:44:32.199Z,3.40
2023-04-05T02:45:34.553Z,3.63
2023-04-05T02:46:37.029Z,3.80
2023-04-05T02:47:40.011Z,4.53
2023-04-05T02:48:43.392Z,4.35
2023-04-05T02:49:48.874Z,3.35
2023-04-05T02:50:52.808Z,3.45
2023-04-05T02:51:56.161Z,3.20
2023-04-05T02:52:58.883Z,3.95
2023-04-05T02:54:03.402Z,4.30
2023-04-05T02:55:07.784Z,3.70
2023-04-05T02:56:14.400Z,3.75
2023-04-05T02:57:19.963Z,3.40
2023-04-05T02:58:30.468Z,3.78
2023-04-05T02:59:32.790Z,3.50
2023-04-05T03:00:36.530Z,4.05
2023-04-05T03:01:44.716Z,4.20
2023-04-05T03:02:56.738Z,4.30
2023-04-05T03:03:59.497Z,3.83
2023-04-05T03:05:02.510Z,3.80
2023-04-05T03:06:10.369Z,4.07
2023-04-05T03:07:26.628Z,3.42
2023-04-05T03:08:29.109Z,3.28
2023-04-05T03:09:38.673Z,3.75
2023-04-05T03:10:45.150Z,3.80
2023-04-05T03:11:51.444Z,3.75
2023-04-05T03:12:53.973Z,3.08
2023-04-05T03:14:00.118Z,3.45
2023-04-05T03:15:22.711Z,3.85
2023-04-05T03:16:25.160Z,3.65
2023-04-05T03:17:27.546Z,3.47
2023-04-05T03:18:37.037Z,3.80
2023-04-05T03:19:43.132Z,3.88
2023-04-05T03:20:57.017Z,3.17
2023-04-05T03:22:00.148Z,3.30
2023-04-05T03:23:09.119Z,3.40
2023-04-05T03:24:12.270Z,3.25
2023-04-05T03:25:17.584Z,3.00
2023-04-05T03:26:23.370Z,3.38
2023-04-05T03:27:29.271Z,3.50
2023-04-05T03:28:45.342Z,3.13
2023-04-05T03:29:49.134Z,3.25
2023-04-05T03:30:53.339Z,3.00
2023-04-05T03:31:59.409Z,3.58
2023-04-05T03:33:03.208Z,3.22
2023-04-05T03:34:30.884Z,2.88
2023-04-05T03:35:38.904Z,3.05
2023-04-05T03:36:43.958Z,3.25
2023-04-05T03:38:01.908Z,4.43
2023-04-05T03:39:04.737Z,3.08
2023-04-05T03:40:10.708Z,3.72
2023-04-05T03:41:13.297Z,3.88
2023-04-05T03:42:16.568Z,4.10
2023-04-05T03:43:20.174Z,4.50
2023-04-05T03:44:23.306Z,3.67
2023-04-05T03:45:26.193Z,4.78
2023-04-05T03:46:28.740Z,4.57
2023-04-05T03:47:31.311Z,4.13
2023-04-05T03:48:39.682Z,3.90
2023-04-05T03:49:42.155Z,4.68
2023-04-05T03:50:44.749Z,4.05
2023-04-05T03:51:47.239Z,3.25
2023-04-05T03:52:49.642Z,4.15
2023-04-05T03:53:52.210Z,4.10
2023-04-05T03:54:55.185Z,3.20
2023-04-05T03:55:59.299Z,3.53
2023-04-05T03:57:14.524Z,4.80
2023-04-05T03:58:18.358Z,3.90
2023-04-05T03:59:21.429Z,3.55
2023-04-05T04:00:24.805Z,3.63
2023-04-05T04:01:48.207Z,3.42
2023-04-05T04:02:52.800Z,4.00
2023-04-05T04:03:57.377Z,3.15
2023-04-05T04:05:00.250Z,3.55
2023-04-05T04:06:07.654Z,3.88
2023-04-05T04:07:10.157Z,3.35
2023-04-05T04:08:13.880Z,3.45
2023-04-05T04:09:16.575Z,3.60
2023-04-05T04:10:19.065Z,3.13
2023-04-05T04:11:26.076Z,3.38
2023-04-05T04:12:28.655Z,3.85
2023-04-05T04:13:35.700Z,3.50
2023-04-05T04:14:58.921Z,3.28
2023-04-05T04:16:33.546Z,3.50
2023-04-05T04:17:55.804Z,3.70
2023-04-05T04:19:11.227Z,3.35
2023-04-05T04:20:43.105Z,3.50
2023-04-05T04:22:05.100Z,3.17
2023-04-05T04:23:39.516Z,3.63
2023-04-05T04:25:18.963Z,3.70
2023-04-05T04:26:54.722Z,3.30
2023-04-05T04:28:19.647Z,3.15
2023-04-05T04:30:01.888Z,3.28
2023-04-05T04:31:13.799Z,3.05
2023-04-05T04:32:55.823Z,3.22
2023-04-05T04:34:06.810Z,3.47
2023-04-05T04:35:39.666Z,3.42
2023-04-05T04:37:01.272Z,3.67
2023-04-05T04:38:35.617Z,3.70
2023-04-05T04:40:04.335Z,3.10
2023-04-05T04:41:22.875Z,3.00
2023-04-05T04:42:48.809Z,2.63
2023-04-05T04:44:14.896Z,3.55
2023-04-05T04:45:39.986Z,3.25
2023-04-05T04:46:56.082Z,3.13
2023-04-05T04:48:19.839Z,3.40
2023-04-05T04:49:33.270Z,3.17
2023-04-05T04:50:36.090Z,3.08
2023-04-05T04:51:39.187Z,3.60
2023-04-05T04:52:41.982Z,3.55
2023-04-05T04:53:44.393Z,3.58
2023-04-05T04:54:47.423Z,3.65
2023-04-05T04:55:50.216Z,2.88
2023-04-05T04:56:52.537Z,3.05
2023-04-05T04:57:57.505Z,3.28
2023-04-05T04:59:00.105Z,2.90
2023-04-05T05:00:07.821Z,3.70
2023-04-05T05:01:10.810Z,3.50
2023-04-05T05:02:13.294Z,3.00
2023-04-05T05:03:16.676Z,3.28
2023-04-05T05:04:19.218Z,3.13
2023-04-05T05:05:22.898Z,3.15
2023-04-05T05:06:27.393Z,3.00
2023-04-05T05:07:30.445Z,3.28
2023-04-05T05:08:32.846Z,3.42
2023-04-05T05:09:35.221Z,2.75
2023-04-05T05:10:37.979Z,3.42
2023-04-05T05:11:40.488Z,3.10
2023-04-05T05:12:45.891Z,3.55
2023-04-05T05:13:53.189Z,4.00
2023-04-05T05:14:59.472Z,3.20
2023-04-05T05:16:04.688Z,3.00
2023-04-05T05:17:08.740Z,3.40
2023-04-05T05:18:12.606Z,4.30
2023-04-05T05:19:15.044Z,4.20
2023-04-05T05:20:22.488Z,4.32
2023-04-05T05:21:24.892Z,4.20
2023-04-05T05:22:31.566Z,4.82
2023-04-05T05:23:33.924Z,4.50
2023-04-05T05:24:37.761Z,5.63
2023-04-05T05:25:41.115Z,5.32
2023-04-05T05:26:43.543Z,5.45
2023-04-05T05:27:50.060Z,5.40
2023-04-05T05:28:52.814Z,5.07
2023-04-05T05:29:55.940Z,4.05
2023-04-05T05:30:58.766Z,4.65
2023-04-05T05:32:01.200Z,5.65
2023-04-05T05:33:04.374Z,6.30
2023-04-05T05:34:06.918Z,6.03
2023-04-05T05:35:10.787Z,7.65
2023-04-05T05:36:13.549Z,8.48
2023-04-05T05:37:17.388Z,7.57
2023-04-05T05:38:20.109Z,7.22
2023-04-05T05:39:23.643Z,6.75
2023-04-05T05:40:26.986Z,7.30
2023-04-05T05:41:29.448Z,8.63
2023-04-05T05:42:34.832Z,6.30
2023-04-05T05:43:37.342Z,5.55
2023-04-05T05:44:40.053Z,5.47
2023-04-05T05:45:42.595Z,5.15
2023-04-05T05:46:45.235Z,5.57
2023-04-05T05:47:48.179Z,5.45
2023-04-05T05:48:50.787Z,5.85
2023-04-05T05:49:53.310Z,4.57
2023-04-05T05:50:56.594Z,5.10
2023-04-05T05:51:59.158Z,4.82
2023-04-05T05:53:01.994Z,4.00
2023-04-05T05:54:04.651Z,4.57
2023-04-05T05:55:07.594Z,4.15
2023-04-05T05:56:10.217Z,4.78
2023-04-05T05:57:13.157Z,3.70
2023-04-05T05:58:15.998Z,3.88
2023-04-05T05:59:18.340Z,4.10
2023-04-05T06:00:21.614Z,3.70
2023-04-05T06:01:28.425Z,3.42
2023-04-05T06:02:33.385Z,3.35
2023-04-05T06:03:38.055Z,4.20
2023-04-05T06:04:44.074Z,3.97
2023-04-05T06:05:57.036Z,3.25
2023-04-05T06:06:59.681Z,3.53
2023-04-05T06:08:04.013Z,2.92
2023-04-05T06:09:06.576Z,3.17
2023-04-05T06:10:09.506Z,3.35
2023-04-05T06:11:21.917Z,3.35
2023-04-05T06:12:25.282Z,2.45
2023-04-05T06:13:28.411Z,2.90
2023-04-05T06:14:31.289Z,2.63
2023-04-05T06:15:33.620Z,2.97
2023-04-05T06:16:36.103Z,3.08
2023-04-05T06:17:42.453Z,2.60
2023-04-05T06:18:45.073Z,3.00
2023-04-05T06:19:47.385Z,2.72
2023-04-05T06:20:49.659Z,2.75
2023-04-05T06:21:52.057Z,2.45
2023-04-05T06:22:54.536Z,2.65
2023-04-05T06:23:57.009Z,2.70
2023-04-05T06:24:59.463Z,2.22
2023-04-05T06:26:01.839Z,3.10
2023-04-05T06:27:04.490Z,3.20
2023-04-05T06:28:07.957Z,3.50
2023-04-05T06:29:10.961Z,2.58
2023-04-05T06:30:14.163Z,2.80
2023-04-05T06:31:17.884Z,2.88
2023-04-05T06:32:20.825Z,2.88
2023-04-05T06:33:27.206Z,2.78
2023-04-05T06:34:29.907Z,2.75
2023-04-05T06:35:32.525Z,2.40
2023-04-05T06:36:35.141Z,2.65
2023-04-05T06:37:37.789Z,2.60
2023-04-05T06:38:40.112Z,2.25
2023-04-05T06:39:42.557Z,3.10
2023-04-05T06:40:45.018Z,2.78
2023-04-05T06:41:47.286Z,2.50
2023-04-05T06:42:49.739Z,2.78
2023-04-05T06:43:57.323Z,2.70
2023-04-05T06:44:59.637Z,2.50
2023-04-05T06:46:02.028Z,2.60
2023-04-05T06:47:05.023Z,2.25
2023-04-05T06:48:08.866Z,2.47
2023-04-05T06:49:11.353Z,2.70
2023-04-05T06:50:13.919Z,2.40
2023-04-05T06:51:17.527Z,2.70
2023-04-05T06:52:20.041Z,2.45
2023-04-05T06:53:22.560Z,2.50
2023-04-05T06:54:25.117Z,1.85
2023-04-05T06:55:27.929Z,2.20
2023-04-05T06:56:30.695Z,2.15
2023-04-05T06:57:33.880Z,2.60
2023-04-05T06:58:36.907Z,2.50
2023-04-05T06:59:39.327Z,2.60
2023-04-05T07:00:41.897Z,2.47
2023-04-05T07:01:46.926Z,2.30
2023-04-05T07:02:49.471Z,2.00
2023-04-05T07:03:51.899Z,1.98
2023-04-05T07:05:00.686Z,2.50
2023-04-05T07:06:03.189Z,2.25
2023-04-05T07:07:06.690Z,2.25
2023-04-05T07:08:09.346Z,2.63
2023-04-05T07:09:12.202Z,2.38
2023-04-05T07:10:14.721Z,2.45
2023-04-05T07:11:17.077Z,2.35
2023-04-05T07:12:19.339Z,2.22
2023-04-05T07:13:23.978Z,3.00
2023-04-05T07:14:26.954Z,4.00
2023-04-05T07:15:29.213Z,10.40
2023-04-05T07:16:31.894Z,7.63
2023-04-05T07:17:34.421Z,11.70
2023-04-05T07:18:36.791Z,13.65
2023-04-05T07:19:39.725Z,12.73
2023-04-05T07:20:42.155Z,11.75
2023-04-05T07:21:44.710Z,12.23
2023-04-05T07:22:47.262Z,10.90
2023-04-05T07:23:49.972Z,9.57
2023-04-05T07:24:53.456Z,9.38
2023-04-05T07:26:04.479Z,8.43
2023-04-05T07:27:06.950Z,8.25
2023-04-05T07:28:09.248Z,7.68
2023-04-05T07:29:13.437Z,5.55
2023-04-05T07:30:16.266Z,5.60
2023-04-05T07:31:18.679Z,5.30
2023-04-05T07:32:21.240Z,4.20
2023-04-05T07:33:23.576Z,4.22
2023-04-05T07:34:27.324Z,3.97
2023-04-05T07:35:29.837Z,3.38
2023-04-05T07:36:32.612Z,2.92
2023-04-05T07:37:34.963Z,3.33
2023-04-05T07:38:37.334Z,3.30
2023-04-05T07:39:39.922Z,3.60
2023-04-05T07:40:42.378Z,3.28
2023-04-05T07:41:44.743Z,2.60
2023-04-05T07:42:47.131Z,3.10
2023-04-05T07:43:50.041Z,2.25
2023-04-05T07:44:52.391Z,2.13
2023-04-05T07:46:02.480Z,2.65
2023-04-05T07:47:04.847Z,2.50
2023-04-05T07:48:07.498Z,2.50
2023-04-05T07:49:10.400Z,2.60
2023-04-05T07:50:15.639Z,3.03
2023-04-05T07:51:17.951Z,2.42
2023-04-05T07:52:20.553Z,2.35
2023-04-05T07:53:22.927Z,2.53
2023-04-05T07:54:25.232Z,2.97
2023-04-05T07:55:28.092Z,2.13
2023-04-05T07:56:30.885Z,2.60
2023-04-05T07:57:33.139Z,3.22
2023-04-05T07:58:36.083Z,2.70
2023-04-05T07:59:38.592Z,2.22
2023-04-05T08:00:41.675Z,2.75
2023-04-05T08:01:44.475Z,2.17
2023-04-05T08:02:46.946Z,3.85
2023-04-05T08:03:50.184Z,2.80
2023-04-05T08:04:52.719Z,2.33
2023-04-05T08:05:55.661Z,2.65
2023-04-05T08:06:57.981Z,10.23
2023-04-05T08:08:00.546Z,10.77
2023-04-05T08:09:06.098Z,8.10
2023-04-05T08:10:08.974Z,6.90
2023-04-05T08:11:11.423Z,4.90
2023-04-05T08:12:13.677Z,4.88
2023-04-05T08:13:16.203Z,3.90
2023-04-05T08:14:18.915Z,4.13
2023-04-05T08:15:21.330Z,4.38
2023-04-05T08:16:23.843Z,3.50
2023-04-05T08:17:28.357Z,3.38
2023-04-05T08:18:30.941Z,3.40
2023-04-05T08:19:33.309Z,3.40
2023-04-05T08:20:39.667Z,4.05
2023-04-05T08:21:42.326Z,3.75
2023-04-05T08:22:44.709Z,4.10
2023-04-05T08:23:47.194Z,3.50
2023-04-05T08:24:49.629Z,3.95
2023-04-05T08:25:52.675Z,3.22
2023-04-05T08:26:55.096Z,3.70
2023-04-05T08:27:57.655Z,3.58
2023-04-05T08:28:59.926Z,3.35
2023-04-05T08:30:02.447Z,3.20
2023-04-05T08:31:04.805Z,3.22
2023-04-05T08:32:07.554Z,3.28
2023-04-05T08:33:09.998Z,3.78
2023-04-05T08:34:12.817Z,3.22
2023-04-05T08:35:16.346Z,4.55
2023-04-05T08:36:18.612Z,3.60
2023-04-05T08:37:21.261Z,4.28
2023-04-05T08:38:23.981Z,3.83
2023-04-05T08:39:27.029Z,4.10
2023-04-05T08:40:50.016Z,3.90
2023-04-05T08:42:05.182Z,3.30
2023-04-05T08:43:42.917Z,3.70
2023-04-05T08:44:46.965Z,3.20
2023-04-05T08:45:51.465Z,3.45
2023-04-05T08:46:56.763Z,2.97
2023-04-05T08:47:59.152Z,2.55
2023-04-05T08:49:08.832Z,2.67
2023-04-05T08:50:13.633Z,2.80
2023-04-05T08:51:22.629Z,3.50
2023-04-05T08:52:26.025Z,3.33
2023-04-05T08:53:28.547Z,3.45
2023-04-05T08:54:30.912Z,2.95
2023-04-05T08:55:34.178Z,2.75
2023-04-05T08:56:37.358Z,2.58
2023-04-05T08:57:44.409Z,2.75
2023-04-05T08:58:53.462Z,3.15
2023-04-05T08:59:58.329Z,3.08
2023-04-05T09:01:01.892Z,3.45
2023-04-05T09:02:16.436Z,3.30
2023-04-05T09:03:23.149Z,3.35
2023-04-05T09:04:35.422Z,3.80
2023-04-05T09:05:41.137Z,3.40
2023-04-05T09:06:45.521Z,2.75
2023-04-05T09:07:48.292Z,3.20
2023-04-05T09:08:50.721Z,3.63
2023-04-05T09:09:54.691Z,3.08
2023-04-05T09:10:58.348Z,3.25
2023-04-05T09:12:01.488Z,3.13
2023-04-05T09:13:04.185Z,3.78
2023-04-05T09:14:07.217Z,3.92
2023-04-05T09:15:09.958Z,3.03
2023-04-05T09:16:14.938Z,3.63
2023-04-05T09:17:20.937Z,3.42
2023-04-05T09:18:27.301Z,3.15
2023-04-05T09:19:30.353Z,2.88
2023-04-05T09:20:32.633Z,4.03
2023-04-05T09:22:07.140Z,4.05
2023-04-05T09:23:12.623Z,3.47
2023-04-05T09:24:14.924Z,3.67
2023-04-05T09:25:32.507Z,3.33
2023-04-05T09:26:34.800Z,4.38
2023-04-05T09:27:55.866Z,3.60
2023-04-05T09:28:58.133Z,3.78
2023-04-05T09:30:00.516Z,3.97
2023-04-05T09:31:04.116Z,3.20
2023-04-05T09:32:07.828Z,3.30
2023-04-05T09:33:10.896Z,3.70
2023-04-05T09:34:22.005Z,3.55
2023-04-05T09:35:29.675Z,3.90
2023-04-05T09:36:35.821Z,4.00
2023-04-05T09:37:53.302Z,3.72
2023-04-05T09:39:08.529Z,3.38
2023-04-05T09:40:14.558Z,4.20
2023-04-05T09:41:17.065Z,3.42
2023-04-05T09:42:23.232Z,3.72
2023-04-05T09:43:42.321Z,3.90
2023-04-05T09:44:50.838Z,4.47
2023-04-05T09:45:53.110Z,3.00
2023-04-05T09:46:55.489Z,3.95
2023-04-05T09:47:58.357Z,4.40
2023-04-05T09:49:01.798Z,4.30
2023-04-05T09:50:16.109Z,4.15
2023-04-05T09:51:19.059Z,3.25
2023-04-05T09:52:26.058Z,4.10
2023-04-05T09:53:29.676Z,3.55
2023-04-05T09:54:42.171Z,3.75
2023-04-05T09:55:44.853Z,4.75
2023-04-05T09:56:57.624Z,3.42
2023-04-05T09:58:01.282Z,4.50
2023-04-05T09:59:08.412Z,4.88
2023-04-05T10:00:21.882Z,5.30
2023-04-05T10:01:28.794Z,3.83
2023-04-05T10:02:40.606Z,4.47
2023-04-05T10:03:50.053Z,3.78
2023-04-05T10:04:54.330Z,6.45
2023-04-05T10:05:56.879Z,5.70
2023-04-05T10:06:59.522Z,5.07
2023-04-05T10:08:02.426Z,6.50
2023-04-05T10:09:06.313Z,6.72
2023-04-05T10:10:13.732Z,4.18
2023-04-05T10:11:18.634Z,4.45
2023-04-05T10:12:28.431Z,3.80
2023-04-05T10:13:31.355Z,3.90
2023-04-05T10:14:33.679Z,3.60
2023-04-05T10:15:36.137Z,3.95
2023-04-05T10:17:04.434Z,4.90
2023-04-05T10:18:14.991Z,7.95
2023-04-05T10:19:43.772Z,6.22
2023-04-05T10:20:51.058Z,6.00
2023-04-05T10:21:54.902Z,5.00
2023-04-05T10:23:25.146Z,4.20
2023-04-05T10:24:59.821Z,5.47
2023-04-05T10:26:14.355Z,5.10
2023-04-05T10:27:47.529Z,5.13
2023-04-05T10:28:56.887Z,4.65
2023-04-05T10:30:09.366Z,3.42
2023-04-05T10:31:46.354Z,4.57
2023-04-05T10:33:00.534Z,4.97
2023-04-05T10:34:08.177Z,7.60
2023-04-05T10:35:17.385Z,4.43
2023-04-05T10:36:51.128Z,3.63
2023-04-05T10:38:10.907Z,3.28
2023-04-05T10:39:28.850Z,3.63
2023-04-05T10:40:33.389Z,2.63
2023-04-05T10:41:42.146Z,2.90
2023-04-05T10:42:46.622Z,2.20
2023-04-05T10:43:51.853Z,2.20
2023-04-05T10:45:04.703Z,2.72
2023-04-05T10:46:08.659Z,3.40
2023-04-05T10:47:17.421Z,3.10
2023-04-05T10:48:34.226Z,4.25
2023-04-05T10:49:49.421Z,2.90
2023-04-05T10:50:52.042Z,3.15
2023-04-05T10:51:55.826Z,4.38
2023-04-05T10:52:59.688Z,3.60
2023-04-05T10:54:02.599Z,4.00
2023-04-05T10:55:06.007Z,3.30
2023-04-05T10:56:09.166Z,3.20
2023-04-05T10:57:12.654Z,3.15
2023-04-05T10:58:16.227Z,3.08
2023-04-05T10:59:19.014Z,3.63
2023-04-05T11:00:23.469Z,2.70
2023-04-05T11:01:26.157Z,2.72
2023-04-05T11:02:29.959Z,2.50
2023-04-05T11:03:45.387Z,2.92
2023-04-05T11:04:56.183Z,2.80
2023-04-05T11:06:30.554Z,3.33
2023-04-05T11:07:47.167Z,3.40
2023-04-05T11:08:54.228Z,3.38
2023-04-05T11:10:01.343Z,3.10
2023-04-05T11:11:04.560Z,2.80
2023-04-05T11:12:07.062Z,2.70
2023-04-05T11:13:10.921Z,2.60
2023-04-05T11:14:35.379Z,2.50
2023-04-05T11:15:38.313Z,2.97
2023-04-05T11:16:41.272Z,2.60
2023-04-05T11:17:43.622Z,2.03
2023-04-05T11:18:52.246Z,2.55
2023-04-05T11:20:05.334Z,2.22
2023-04-05T11:21:09.128Z,2.10
2023-04-05T11:22:13.081Z,2.35
2023-04-05T11:23:18.871Z,2.15
2023-04-05T11:24:21.362Z,1.85
2023-04-05T11:25:25.269Z,18.45
2023-04-05T11:26:46.116Z,16.45
2023-04-05T11:28:00.930Z,19.55
2023-04-05T11:29:03.616Z,21.42
2023-04-05T11:30:06.889Z,13.02
2023-04-05T11:31:20.509Z,10.98
2023-04-05T11:32:23.770Z,9.52
2023-04-05T11:33:39.192Z,4.97
2023-04-05T11:34:45.148Z,14.95
2023-04-05T11:36:02.775Z,13.85
2023-04-05T11:37:05.238Z,14.07
2023-04-05T11:38:10.359Z,12.55
2023-04-05T11:39:19.117Z,10.35
2023-04-05T11:40:35.913Z,15.13
2023-04-05T11:41:39.171Z,16.50
2023-04-05T11:42:41.904Z,23.50
2023-04-05T11:43:47.949Z,19.70
2023-04-05T11:44:52.770Z,22.00
2023-04-05T11:45:55.353Z,25.63
2023-04-05T11:46:57.976Z,21.95
2023-04-05T11:48:04.787Z,22.90
2023-04-05T11:49:07.871Z,19.30
2023-04-05T11:50:11.576Z,13.27
2023-04-05T11:51:14.075Z,12.48
2023-04-05T11:52:18.548Z,10.38
2023-04-05T11:53:21.445Z,14.15
2023-04-05T11:54:31.189Z,18.70
2023-04-05T11:55:33.767Z,16.38
2023-04-05T11:56:36.323Z,12.43
2023-04-05T11:57:39.063Z,14.35
2023-04-05T11:58:41.900Z,15.63
2023-04-05T11:59:44.686Z,14.48
2023-04-05T12:00:57.042Z,9.20
2023-04-05T12:02:06.187Z,11.88
2023-04-05T12:03:15.468Z,9.88
2023-04-05T12:04:18.209Z,5.68
2023-04-05T12:05:20.620Z,6.28
2023-04-05T12:06:24.375Z,8.00
2023-04-05T12:07:37.029Z,9.63
2023-04-05T12:08:50.148Z,9.73
2023-04-05T12:10:04.410Z,8.00
2023-04-05T12:11:13.400Z,8.05
2023-04-05T12:12:18.628Z,7.88
2023-04-05T12:13:31.975Z,6.50
2023-04-05T12:14:34.246Z,7.28
2023-04-05T12:15:40.974Z,7.20
2023-04-05T12:16:50.419Z,4.93
2023-04-05T12:17:54.844Z,5.85
2023-04-05T12:19:00.993Z,6.07
2023-04-05T12:20:04.031Z,5.00
2023-04-05T12:21:09.232Z,4.72
2023-04-05T12:22:12.087Z,3.65
2023-04-05T12:23:14.797Z,3.08
2023-04-05T12:24:17.146Z,3.15
2023-04-05T12:25:20.607Z,2.67
2023-04-05T12:26:23.215Z,2.60
2023-04-05T12:27:25.627Z,3.25
2023-04-05T12:28:51.541Z,2.78
2023-04-05T12:30:10.156Z,3.45
2023-04-05T12:31:12.545Z,3.33
2023-04-05T12:32:15.805Z,3.67
2023-04-05T12:33:28.736Z,3.03
2023-04-05T12:34:31.082Z,2.40
2023-04-05T12:35:35.201Z,3.17
2023-04-05T12:36:38.914Z,2.90
2023-04-05T12:37:41.358Z,3.08
2023-04-05T12:38:43.640Z,2.90
2023-04-05T12:39:46.032Z,2.72
2023-04-05T12:40:49.197Z,2.70
2023-04-05T12:42:01.307Z,2.50
2023-04-05T12:43:08.736Z,3.00
2023-04-05T12:44:29.775Z,2.88
2023-04-05T12:45:40.288Z,3.00
2023-04-05T12:46:47.536Z,2.80
2023-04-05T12:47:52.731Z,2.55
2023-04-05T12:48:55.001Z,2.80
2023-04-05T12:49:57.354Z,2.53
2023-04-05T12:51:05.089Z,3.25
2023-04-05T12:52:07.906Z,2.95
2023-04-05T12:53:18.306Z,3.40
2023-04-05T12:54:24.741Z,2.53
2023-04-05T12:55:28.554Z,3.00
2023-04-05T12:56:32.550Z,3.25
2023-04-05T12:57:35.424Z,3.45
2023-04-05T12:58:38.885Z,4.90
2023-04-05T12:59:41.153Z,4.78
2023-04-05T13:00:44.093Z,4.45
2023-04-05T13:01:47.301Z,4.10
2023-04-05T13:02:51.816Z,3.53
2023-04-05T13:04:01.602Z,3.35
2023-04-05T13:05:11.169Z,4.35
2023-04-05T13:06:13.402Z,3.70
2023-04-05T13:07:15.806Z,3.20
2023-04-05T13:08:21.155Z,2.90
2023-04-05T13:09:23.420Z,3.20
2023-04-05T13:10:26.119Z,3.60
2023-04-05T13:11:28.501Z,4.30
2023-04-05T13:12:30.770Z,4.05
2023-04-05T13:13:34.575Z,4.10
2023-04-05T13:14:36.910Z,4.97
2023-04-05T13:15:39.836Z,4.25
2023-04-05T13:16:42.282Z,4.60
2023-04-05T13:17:45.576Z,4.63
2023-04-05T13:18:47.970Z,4.38
2023-04-05T13:19:50.527Z,3.85
2023-04-05T13:20:52.749Z,4.50
2023-04-05T13:21:55.180Z,3.63
2023-04-05T13:22:57.864Z,3.17
2023-04-05T13:24:00.337Z,4.68
2023-04-05T13:25:02.868Z,3.53
2023-04-05T13:26:06.423Z,4.97
2023-04-05T13:27:08.816Z,4.05
2023-04-05T13:28:11.602Z,5.65
2023-04-05T13:29:13.845Z,4.47
2023-04-05T13:30:16.688Z,3.63
2023-04-05T13:31:19.045Z,4.30
2023-04-05T13:32:21.488Z,4.75
2023-04-05T13:33:23.839Z,4.70
2023-04-05T13:34:26.290Z,4.00
2023-04-05T13:35:28.667Z,3.50
2023-04-05T13:36:31.490Z,3.15
2023-04-05T13:37:33.865Z,2.97
2023-04-05T13:38:36.599Z,3.35
2023-04-05T13:39:38.871Z,2.92
2023-04-05T13:40:41.599Z,3.00
2023-04-05T13:41:43.926Z,3.33
2023-04-05T13:42:46.197Z,4.10
2023-04-05T13:43:48.484Z,4.65
2023-04-05T13:44:52.150Z,4.47
2023-04-05T13:45:54.501Z,3.80
2023-04-05T13:46:56.882Z,4.18
2023-04-05T13:47:59.299Z,4.10
2023-04-05T13:49:01.574Z,4.60
2023-04-05T13:50:04.363Z,4.10
2023-04-05T13:51:06.900Z,4.18
2023-04-05T13:52:10.297Z,4.22
2023-04-05T13:53:12.597Z,5.30
2023-04-05T13:54:15.992Z,4.30
2023-04-05T13:55:19.006Z,5.03
2023-04-05T13:56:21.411Z,4.35
2023-04-05T13:57:23.796Z,4.70
2023-04-05T13:58:26.025Z,4.55
2023-04-05T13:59:28.406Z,3.78
2023-04-05T14:00:30.733Z,3.85
2023-04-05T14:01:36.431Z,3.72
2023-04-05T14:02:39.636Z,3.47
2023-04-05T14:03:42.249Z,2.90
2023-04-05T14:04:44.758Z,3.08
2023-04-05T14:05:49.819Z,2.40
2023-04-05T14:06:53.740Z,2.70
2023-04-05T14:07:56.135Z,1.85
2023-04-05T14:08:58.372Z,1.90
2023-04-05T14:10:00.881Z,2.20
2023-04-05T14:11:03.236Z,1.70
2023-04-05T14:12:06.422Z,2.42
2023-04-05T14:13:08.799Z,3.00
2023-04-05T14:14:11.093Z,2.60
2023-04-05T14:15:13.452Z,2.20
2023-04-05T14:16:15.977Z,2.60
2023-04-05T14:17:18.426Z,2.80
2023-04-05T14:18:20.776Z,2.53
2023-04-05T14:19:23.015Z,1.90
2023-04-05T14:20:25.738Z,2.50
2023-04-05T14:21:28.078Z,2.20
2023-04-05T14:22:30.479Z,2.00
2023-04-05T14:23:32.818Z,2.60
2023-04-05T14:24:35.071Z,2.80
2023-04-05T14:25:37.396Z,2.50
2023-04-05T14:26:40.140Z,2.90
2023-04-05T14:27:42.696Z,2.80
2023-04-05T14:28:45.051Z,2.25
2023-04-05T14:29:47.366Z,3.30
2023-04-05T14:30:49.897Z,3.50
2023-04-05T14:31:52.449Z,3.50
2023-04-05T14:32:54.697Z,3.20
2023-04-05T14:33:57.050Z,2.70
2023-04-05T14:34:59.317Z,2.72
2023-04-05T14:36:01.644Z,3.05
2023-04-05T14:37:04.226Z,2.60
2023-04-05T14:38:06.523Z,2.65